Terminal Aerodrome Forecast
Issued by NWS Quad Cities IA IL

Home | Current Version | Previous Version | Text Only | Print | Product List | Glossary On
Versions: 1 2 3 4 5 6 7 8 9 10 11 12 13 14 15 16 17 18 19
000
FTUS43 KDVN 251734
TAFMLI
TAF
KMLI 251734Z 2518/2618 VRB04KT P6SM SCT100 BKN250
     FM251900 30004KT 6SM -RA BR BKN040 OVC100
     FM260000 29003KT P6SM BKN100 BKN250
     FM260900 03003KT 6SM BR SCT060 BKN150
     FM261500 09005KT P6SM SCT060 BKN150=

USA.gov is the U.S. government's official web portal to all federal, state and local government web resources and services.